sensor_id;sensor_type;location;lat;lon;timestamp;pressure;altitude;pressure_sealevel;temperature;humidity
15678;BME280;7939;50.814;6.368;2023-05-09T00:00:20;100134.41;;;19.62;65.39
15678;BME280;7939;50.814;6.368;2023-05-09T00:02:46;100137.00;;;19.61;65.43
15678;BME280;7939;50.814;6.368;2023-05-09T00:05:13;100132.72;;;19.60;65.26
15678;BME280;7939;50.814;6.368;2023-05-09T00:07:40;100126.69;;;19.59;65.15
15678;BME280;7939;50.814;6.368;2023-05-09T00:10:07;100131.88;;;19.59;65.60
15678;BME280;7939;50.814;6.368;2023-05-09T00:12:34;100123.28;;;19.57;65.83
15678;BME280;7939;50.814;6.368;2023-05-09T00:15:03;100127.63;;;19.57;65.70
15678;BME280;7939;50.814;6.368;2023-05-09T00:17:32;100124.16;;;19.58;65.38
15678;BME280;7939;50.814;6.368;2023-05-09T00:20:00;100119.00;;;19.56;65.45
15678;BME280;7939;50.814;6.368;2023-05-09T00:22:32;100108.63;;;19.56;65.60
15678;BME280;7939;50.814;6.368;2023-05-09T00:24:58;100106.94;;;19.55;65.62
15678;BME280;7939;50.814;6.368;2023-05-09T00:27:25;100100.03;;;19.54;65.71
15678;BME280;7939;50.814;6.368;2023-05-09T00:29:54;100097.44;;;19.54;65.89
15678;BME280;7939;50.814;6.368;2023-05-09T00:32:22;100100.94;;;19.53;65.49
15678;BME280;7939;50.814;6.368;2023-05-09T00:34:50;100105.28;;;19.53;65.39
15678;BME280;7939;50.814;6.368;2023-05-09T00:37:16;100105.28;;;19.53;65.75
15678;BME280;7939;50.814;6.368;2023-05-09T00:39:43;100098.41;;;19.52;65.75
15678;BME280;7939;50.814;6.368;2023-05-09T00:42:10;100100.16;;;19.51;65.77
15678;BME280;7939;50.814;6.368;2023-05-09T00:44:37;100093.28;;;19.50;65.12
15678;BME280;7939;50.814;6.368;2023-05-09T00:47:04;100095.00;;;19.50;65.84
15678;BME280;7939;50.814;6.368;2023-05-09T00:49:33;100094.16;;;19.49;65.74
15678;BME280;7939;50.814;6.368;2023-05-09T00:52:01;100089.00;;;19.49;65.50
15678;BME280;7939;50.814;6.368;2023-05-09T00:54:29;100086.41;;;19.48;65.50
15678;BME280;7939;50.814;6.368;2023-05-09T00:56:55;100076.06;;;19.48;65.57
15678;BME280;7939;50.814;6.368;2023-05-09T00:59:23;100073.47;;;19.48;65.79
15678;BME280;7939;50.814;6.368;2023-05-09T01:01:50;100071.78;;;19.47;65.90
15678;BME280;7939;50.814;6.368;2023-05-09T01:04:16;100064.84;;;19.47;65.46
15678;BME280;7939;50.814;6.368;2023-05-09T01:06:50;100062.31;;;19.46;65.74
15678;BME280;7939;50.814;6.368;2023-05-09T01:09:23;100064.91;;;19.46;65.53
15678;BME280;7939;50.814;6.368;2023-05-09T01:11:58;100062.34;;;19.44;65.46
15678;BME280;7939;50.814;6.368;2023-05-09T01:14:35;100061.50;;;19.44;65.70
15678;BME280;7939;50.814;6.368;2023-05-09T01:17:09;100051.16;;;19.44;65.39
15678;BME280;7939;50.814;6.368;2023-05-09T01:19:53;100050.31;;;19.41;65.32
15678;BME280;7939;50.814;6.368;2023-05-09T01:22:28;100058.09;;;19.41;65.85
15678;BME280;7939;50.814;6.368;2023-05-09T01:25:05;100048.56;;;19.42;65.67
15678;BME280;7939;50.814;6.368;2023-05-09T01:27:43;100046.03;;;19.40;65.31
15678;BME280;7939;50.814;6.368;2023-05-09T01:30:15;100046.03;;;19.40;65.15
15678;BME280;7939;50.814;6.368;2023-05-09T01:32:45;100042.59;;;19.40;65.34
15678;BME280;7939;50.814;6.368;2023-05-09T01:35:15;100038.25;;;19.40;65.59
15678;BME280;7939;50.814;6.368;2023-05-09T01:37:43;100031.41;;;19.39;65.51
15678;BME280;7939;50.814;6.368;2023-05-09T01:40:15;100025.38;;;19.39;65.61
15678;BME280;7939;50.814;6.368;2023-05-09T01:42:47;100025.38;;;19.39;65.21
15678;BME280;7939;50.814;6.368;2023-05-09T01:45:16;100021.94;;;19.38;65.06
15678;BME280;7939;50.814;6.368;2023-05-09T01:47:43;100028.84;;;19.38;65.53
15678;BME280;7939;50.814;6.368;2023-05-09T01:50:11;100016.81;;;19.37;65.37
15678;BME280;7939;50.814;6.368;2023-05-09T01:52:39;100015.13;;;19.36;65.46
15678;BME280;7939;50.814;6.368;2023-05-09T01:55:06;100022.88;;;19.36;65.60
15678;BME280;7939;50.814;6.368;2023-05-09T01:57:34;100014.22;;;19.35;65.24
15678;BME280;7939;50.814;6.368;2023-05-09T02:00:03;100023.75;;;19.35;65.43
15678;BME280;7939;50.814;6.368;2023-05-09T02:02:32;100021.22;;;19.33;65.08
15678;BME280;7939;50.814;6.368;2023-05-09T02:05:00;100016.94;;;19.32;65.36
15678;BME280;7939;50.814;6.368;2023-05-09T02:07:28;100013.50;;;19.32;65.76
15678;BME280;7939;50.814;6.368;2023-05-09T02:09:56;100004.88;;;19.31;65.57
15678;BME280;7939;50.814;6.368;2023-05-09T02:12:23;100007.47;;;19.31;65.11
15678;BME280;7939;50.814;6.368;2023-05-09T02:14:50;100004.03;;;19.31;65.24
15678;BME280;7939;50.814;6.368;2023-05-09T02:17:16;100004.94;;;19.30;65.36
15678;BME280;7939;50.814;6.368;2023-05-09T02:19:46;100004.97;;;19.28;65.55
15678;BME280;7939;50.814;6.368;2023-05-09T02:22:13;100001.53;;;19.28;65.34
15678;BME280;7939;50.814;6.368;2023-05-09T02:24:41;99997.25;;;19.27;65.53
15678;BME280;7939;50.814;6.368;2023-05-09T02:27:09;99996.41;;;19.26;65.45
15678;BME280;7939;50.814;6.368;2023-05-09T02:29:40;99984.34;;;19.25;65.48
15678;BME280;7939;50.814;6.368;2023-05-09T02:32:09;99992.13;;;19.25;65.29
15678;BME280;7939;50.814;6.368;2023-05-09T02:34:37;99995.63;;;19.24;65.60
15678;BME280;7939;50.814;6.368;2023-05-09T02:37:06;99993.03;;;19.24;65.68
15678;BME280;7939;50.814;6.368;2023-05-09T02:39:33;99997.38;;;19.24;65.48
15678;BME280;7939;50.814;6.368;2023-05-09T02:42:04;99994.78;;;19.24;65.41
15678;BME280;7939;50.814;6.368;2023-05-09T02:44:31;99996.50;;;19.23;65.40
15678;BME280;7939;50.814;6.368;2023-05-09T02:46:58;99997.38;;;19.22;65.23
15678;BME280;7939;50.814;6.368;2023-05-09T02:49:24;100001.72;;;19.22;65.44
15678;BME280;7939;50.814;6.368;2023-05-09T02:51:51;100002.56;;;19.22;65.70
15678;BME280;7939;50.814;6.368;2023-05-09T02:54:19;99998.28;;;19.21;65.39
15678;BME280;7939;50.814;6.368;2023-05-09T02:56:46;100000.03;;;19.21;65.29
15678;BME280;7939;50.814;6.368;2023-05-09T02:59:13;99996.59;;;19.20;65.54
15678;BME280;7939;50.814;6.368;2023-05-09T03:01:39;99988.81;;;19.20;65.67
15678;BME280;7939;50.814;6.368;2023-05-09T03:04:06;99979.38;;;19.19;65.58
15678;BME280;7939;50.814;6.368;2023-05-09T03:06:33;99984.56;;;19.19;65.34
15678;BME280;7939;50.814;6.368;2023-05-09T03:09:00;99981.13;;;19.19;65.31
15678;BME280;7939;50.814;6.368;2023-05-09T03:11:28;99978.56;;;19.17;65.71
15678;BME280;7939;50.814;6.368;2023-05-09T03:13:55;99979.44;;;19.16;65.78
15678;BME280;7939;50.814;6.368;2023-05-09T03:16:22;99978.56;;;19.17;65.73
15678;BME280;7939;50.814;6.368;2023-05-09T03:18:49;99980.28;;;19.17;65.35
15678;BME280;7939;50.814;6.368;2023-05-09T03:21:15;99976.00;;;19.16;65.61
15678;BME280;7939;50.814;6.368;2023-05-09T03:23:42;99975.16;;;19.15;65.44
15678;BME280;7939;50.814;6.368;2023-05-09T03:26:09;99974.31;;;19.14;65.90
15678;BME280;7939;50.814;6.368;2023-05-09T03:28:37;99970.88;;;19.14;65.81
15678;BME280;7939;50.814;6.368;2023-05-09T03:31:04;99971.72;;;19.14;65.50
15678;BME280;7939;50.814;6.368;2023-05-09T03:33:31;99967.44;;;19.13;65.40
15678;BME280;7939;50.814;6.368;2023-05-09T03:35:57;99964.88;;;19.13;65.60
15678;BME280;7939;50.814;6.368;2023-05-09T03:38:24;99960.59;;;19.12;65.68
15678;BME280;7939;50.814;6.368;2023-05-09T03:40:52;99965.75;;;19.12;65.39
15678;BME280;7939;50.814;6.368;2023-05-09T03:43:18;99960.59;;;19.12;65.53
15678;BME280;7939;50.814;6.368;2023-05-09T03:45:47;99952.81;;;19.12;65.68
15678;BME280;7939;50.814;6.368;2023-05-09T03:48:13;99958.91;;;19.11;65.37
15678;BME280;7939;50.814;6.368;2023-05-09T03:50:40;99951.13;;;19.11;65.68
15678;BME280;7939;50.814;6.368;2023-05-09T03:53:07;99942.50;;;19.11;65.37
15678;BME280;7939;50.814;6.368;2023-05-09T03:55:33;99938.19;;;19.10;65.23
15678;BME280;7939;50.814;6.368;2023-05-09T03:58:00;99924.41;;;19.09;65.37
15678;BME280;7939;50.814;6.368;2023-05-09T04:00:27;99927.84;;;19.10;65.43
15678;BME280;7939;50.814;6.368;2023-05-09T04:02:55;99926.16;;;19.09;65.27
15678;BME280;7939;50.814;6.368;2023-05-09T04:05:22;99923.56;;;19.09;65.24
15678;BME280;7939;50.814;6.368;2023-05-09T04:07:49;99928.75;;;19.09;65.50
15678;BME280;7939;50.814;6.368;2023-05-09T04:10:16;99930.47;;;19.08;65.08
15678;BME280;7939;50.814;6.368;2023-05-09T04:12:42;99933.06;;;19.08;64.90
15678;BME280;7939;50.814;6.368;2023-05-09T04:15:09;99930.47;;;19.08;65.66
15678;BME280;7939;50.814;6.368;2023-05-09T04:17:36;99933.97;;;19.07;65.16
15678;BME280;7939;50.814;6.368;2023-05-09T04:20:05;99933.06;;;19.08;65.16
15678;BME280;7939;50.814;6.368;2023-05-09T04:22:32;99933.97;;;19.07;64.95
15678;BME280;7939;50.814;6.368;2023-05-09T04:24:59;99923.63;;;19.07;65.37
15678;BME280;7939;50.814;6.368;2023-05-09T04:27:25;99916.75;;;19.06;65.36
15678;BME280;7939;50.814;6.368;2023-05-09T04:29:52;99916.75;;;19.06;65.16
15678;BME280;7939;50.814;6.368;2023-05-09T04:32:18;99920.22;;;19.05;65.41
15678;BME280;7939;50.814;6.368;2023-05-09T04:34:46;99922.81;;;19.05;65.46
15678;BME280;7939;50.814;6.368;2023-05-09T04:37:14;99915.06;;;19.05;65.46
15678;BME280;7939;50.814;6.368;2023-05-09T04:39:41;99917.66;;;19.04;65.77
15678;BME280;7939;50.814;6.368;2023-05-09T04:42:08;99917.66;;;19.04;65.69
15678;BME280;7939;50.814;6.368;2023-05-09T04:44:35;99913.34;;;19.04;65.39
15678;BME280;7939;50.814;6.368;2023-05-09T04:47:01;99915.09;;;19.04;65.11
15678;BME280;7939;50.814;6.368;2023-05-09T04:49:28;99915.94;;;19.04;64.99
15678;BME280;7939;50.814;6.368;2023-05-09T04:51:54;99912.50;;;19.04;65.24
15678;BME280;7939;50.814;6.368;2023-05-09T04:54:22;99913.34;;;19.04;65.38
15678;BME280;7939;50.814;6.368;2023-05-09T04:56:49;99915.09;;;19.04;65.33
15678;BME280;7939;50.814;6.368;2023-05-09T04:59:15;99914.22;;;19.05;65.37
15678;BME280;7939;50.814;6.368;2023-05-09T05:01:42;99908.16;;;19.04;65.18
15678;BME280;7939;50.814;6.368;2023-05-09T05:04:09;99907.28;;;19.05;65.27
15678;BME280;7939;50.814;6.368;2023-05-09T05:06:35;99906.44;;;19.05;65.28
15678;BME280;7939;50.814;6.368;2023-05-09T05:09:02;99893.50;;;19.05;65.49
15678;BME280;7939;50.814;6.368;2023-05-09T05:11:31;99892.59;;;19.06;65.82
15678;BME280;7939;50.814;6.368;2023-05-09T05:13:58;99893.44;;;19.06;65.37
15678;BME280;7939;50.814;6.368;2023-05-09T05:16:24;99884.81;;;19.06;65.26
15678;BME280;7939;50.814;6.368;2023-05-09T05:18:52;99889.09;;;19.07;65.39
15678;BME280;7939;50.814;6.368;2023-05-09T05:21:18;99888.25;;;19.06;66.00
15678;BME280;7939;50.814;6.368;2023-05-09T05:23:45;99883.06;;;19.06;66.10
15678;BME280;7939;50.814;6.368;2023-05-09T05:26:11;99883.06;;;19.06;65.54
15678;BME280;7939;50.814;6.368;2023-05-09T05:28:39;99879.63;;;19.06;66.27
15678;BME280;7939;50.814;6.368;2023-05-09T05:31:06;99889.09;;;19.07;66.22
15678;BME280;7939;50.814;6.368;2023-05-09T05:33:32;99886.50;;;19.07;66.43
15678;BME280;7939;50.814;6.368;2023-05-09T05:35:59;99877.88;;;19.06;66.46
15678;BME280;7939;50.814;6.368;2023-05-09T05:38:25;99880.47;;;19.06;66.29
15678;BME280;7939;50.814;6.368;2023-05-09T05:40:52;99864.94;;;19.06;66.42
15678;BME280;7939;50.814;6.368;2023-05-09T05:43:19;99864.94;;;19.06;66.58
15678;BME280;7939;50.814;6.368;2023-05-09T05:45:47;99864.09;;;19.06;66.75
15678;BME280;7939;50.814;6.368;2023-05-09T05:48:14;99865.78;;;19.07;66.75
15678;BME280;7939;50.814;6.368;2023-05-09T05:50:40;99859.75;;;19.06;66.78
15678;BME280;7939;50.814;6.368;2023-05-09T05:53:07;99857.94;;;19.08;67.19
15678;BME280;7939;50.814;6.368;2023-05-09T05:55:35;99856.25;;;19.07;66.76
15678;BME280;7939;50.814;6.368;2023-05-09T05:58:01;99857.94;;;19.08;67.08
15678;BME280;7939;50.814;6.368;2023-05-09T06:00:28;99857.09;;;19.08;66.91
15678;BME280;7939;50.814;6.368;2023-05-09T06:02:56;99855.34;;;19.08;67.31
15678;BME280;7939;50.814;6.368;2023-05-09T06:05:22;99848.44;;;19.09;66.83
15678;BME280;7939;50.814;6.368;2023-05-09T06:07:49;99848.38;;;19.10;66.84
15678;BME280;7939;50.814;6.368;2023-05-09T06:10:16;99850.13;;;19.10;66.55
15678;BME280;7939;50.814;6.368;2023-05-09T06:12:42;99842.31;;;19.11;66.94
15678;BME280;7939;50.814;6.368;2023-05-09T06:15:10;99836.28;;;19.11;67.11
15678;BME280;7939;50.814;6.368;2023-05-09T06:17:36;99836.28;;;19.11;67.00
15678;BME280;7939;50.814;6.368;2023-05-09T06:20:06;99837.13;;;19.11;66.90
15678;BME280;7939;50.814;6.368;2023-05-09T06:22:32;99819.84;;;19.12;66.69
15678;BME280;7939;50.814;6.368;2023-05-09T06:24:59;99824.97;;;19.13;66.88
15678;BME280;7939;50.814;6.368;2023-05-09T06:27:26;99819.78;;;19.13;66.58
15678;BME280;7939;50.814;6.368;2023-05-09T06:29:52;99814.53;;;19.15;66.77
15678;BME280;7939;50.814;6.368;2023-05-09T06:32:19;99811.06;;;19.16;66.07
15678;BME280;7939;50.814;6.368;2023-05-09T06:34:46;99808.44;;;19.18;66.12
15678;BME280;7939;50.814;6.368;2023-05-09T06:37:14;99797.16;;;19.19;66.17
15678;BME280;7939;50.814;6.368;2023-05-09T06:39:40;99805.78;;;19.19;66.05
15678;BME280;7939;50.814;6.368;2023-05-09T06:42:07;99797.94;;;19.21;66.12
15678;BME280;7939;50.814;6.368;2023-05-09T06:44:33;99798.78;;;19.21;65.91
15678;BME280;7939;50.814;6.368;2023-05-09T06:47:00;99784.94;;;19.22;66.21
15678;BME280;7939;50.814;6.368;2023-05-09T06:49:27;99788.34;;;19.24;65.94
15678;BME280;7939;50.814;6.368;2023-05-09T06:51:53;99781.41;;;19.25;65.71
15678;BME280;7939;50.814;6.368;2023-05-09T06:54:22;99787.38;;;19.27;65.39
15678;BME280;7939;50.814;6.368;2023-05-09T06:56:49;99785.56;;;19.29;65.69
15678;BME280;7939;50.814;6.368;2023-05-09T06:59:15;99773.41;;;19.31;65.15
15678;BME280;7939;50.814;6.368;2023-05-09T07:01:42;99775.94;;;19.32;65.48
15678;BME280;7939;50.814;6.368;2023-05-09T07:04:09;99778.53;;;19.32;65.37
15678;BME280;7939;50.814;6.368;2023-05-09T07:06:36;99773.28;;;19.34;65.38
15678;BME280;7939;50.814;6.368;2023-05-09T07:09:02;99769.75;;;19.36;65.42
15678;BME280;7939;50.814;6.368;2023-05-09T07:11:34;99777.47;;;19.38;65.07
15678;BME280;7939;50.814;6.368;2023-05-09T07:14:01;99764.44;;;19.39;65.26
15678;BME280;7939;50.814;6.368;2023-05-09T07:16:27;99766.97;;;19.41;64.91
15678;BME280;7939;50.814;6.368;2023-05-09T07:18:54;99770.38;;;19.43;65.26
15678;BME280;7939;50.814;6.368;2023-05-09T07:21:21;99763.38;;;19.45;65.24
15678;BME280;7939;50.814;6.368;2023-05-09T07:23:48;99757.28;;;19.46;64.80
15678;BME280;7939;50.814;6.368;2023-05-09T07:26:14;99747.69;;;19.48;64.96
15678;BME280;7939;50.814;6.368;2023-05-09T07:28:42;99757.19;;;19.49;64.81
15678;BME280;7939;50.814;6.368;2023-05-09T07:31:09;99750.06;;;19.54;65.03
15678;BME280;7939;50.814;6.368;2023-05-09T07:33:36;99749.88;;;19.60;63.89
15678;BME280;7939;50.814;6.368;2023-05-09T07:36:03;99736.91;;;19.60;63.87
15678;BME280;7939;50.814;6.368;2023-05-09T07:38:30;99744.69;;;19.60;63.98
15678;BME280;7939;50.814;6.368;2023-05-09T07:40:57;99738.56;;;19.63;63.45
15678;BME280;7939;50.814;6.368;2023-05-09T07:43:23;99738.50;;;19.64;63.98
15678;BME280;7939;50.814;6.368;2023-05-09T07:45:51;99737.59;;;19.65;63.88
15678;BME280;7939;50.814;6.368;2023-05-09T07:48:18;99740.13;;;19.67;63.65
15678;BME280;7939;50.814;6.368;2023-05-09T07:50:45;99730.63;;;19.67;63.98
15678;BME280;7939;50.814;6.368;2023-05-09T07:53:12;99726.31;;;19.66;63.64
15678;BME280;7939;50.814;6.368;2023-05-09T07:55:38;99727.13;;;19.69;63.86
15678;BME280;7939;50.814;6.368;2023-05-09T07:58:05;99724.53;;;19.69;63.49
15678;BME280;7939;50.814;6.368;2023-05-09T08:00:31;99717.66;;;19.67;63.98
15678;BME280;7939;50.814;6.368;2023-05-09T08:02:59;99723.78;;;19.65;63.90
15678;BME280;7939;50.814;6.368;2023-05-09T08:05:26;99711.59;;;19.67;63.92
15678;BME280;7939;50.814;6.368;2023-05-09T08:07:53;99711.56;;;19.69;63.96
15678;BME280;7939;50.814;6.368;2023-05-09T08:10:19;99713.13;;;19.73;63.80
15678;BME280;7939;50.814;6.368;2023-05-09T08:12:47;99703.59;;;19.73;63.46
15678;BME280;7939;50.814;6.368;2023-05-09T08:15:14;99700.16;;;19.73;63.33
15678;BME280;7939;50.814;6.368;2023-05-09T08:17:40;99701.72;;;19.77;63.67
15678;BME280;7939;50.814;6.368;2023-05-09T08:20:09;99694.72;;;19.79;63.80
15678;BME280;7939;50.814;6.368;2023-05-09T08:22:37;99686.91;;;19.80;63.69
15678;BME280;7939;50.814;6.368;2023-05-09T08:25:05;99679.00;;;19.83;63.06
15678;BME280;7939;50.814;6.368;2023-05-09T08:27:31;99668.63;;;19.83;62.99
15678;BME280;7939;50.814;6.368;2023-05-09T08:29:58;99665.91;;;19.86;63.11
15678;BME280;7939;50.814;6.368;2023-05-09T08:32:25;99664.94;;;19.89;62.97
15678;BME280;7939;50.814;6.368;2023-05-09T08:34:51;99662.22;;;19.92;62.58
15678;BME280;7939;50.814;6.368;2023-05-09T08:37:20;99661.34;;;19.93;62.72
15678;BME280;7939;50.814;6.368;2023-05-09T08:39:46;99659.50;;;19.95;63.09
15678;BME280;7939;50.814;6.368;2023-05-09T08:42:14;99661.19;;;19.96;62.86
15678;BME280;7939;50.814;6.368;2023-05-09T08:44:44;99656.25;;;19.90;62.89
15678;BME280;7939;50.814;6.368;2023-05-09T08:47:10;99647.44;;;19.94;63.01
15678;BME280;7939;50.814;6.368;2023-05-09T08:49:39;99652.50;;;19.97;62.98
15678;BME280;7939;50.814;6.368;2023-05-09T08:52:06;99643.81;;;19.98;62.77
15678;BME280;7939;50.814;6.368;2023-05-09T08:54:35;99638.56;;;20.00;62.86
15678;BME280;7939;50.814;6.368;2023-05-09T08:57:01;99635.06;;;20.01;62.79
15678;BME280;7939;50.814;6.368;2023-05-09T08:59:28;99635.97;;;20.00;62.82
15678;BME280;7939;50.814;6.368;2023-05-09T09:01:57;99635.00;;;20.02;63.02
15678;BME280;7939;50.814;6.368;2023-05-09T09:04:24;99628.97;;;20.02;63.11
15678;BME280;7939;50.814;6.368;2023-05-09T09:06:52;99624.69;;;20.01;62.63
15678;BME280;7939;50.814;6.368;2023-05-09T09:09:19;99626.31;;;20.03;62.63
15678;BME280;7939;50.814;6.368;2023-05-09T09:11:47;99627.13;;;20.05;62.61
15678;BME280;7939;50.814;6.368;2023-05-09T09:14:20;99620.03;;;20.09;62.20
15678;BME280;7939;50.814;6.368;2023-05-09T09:16:50;99606.94;;;20.12;62.49
15678;BME280;7939;50.814;6.368;2023-05-09T09:19:19;99606.69;;;20.18;62.30
15678;BME280;7939;50.814;6.368;2023-05-09T09:21:47;99605.78;;;20.19;62.28
15678;BME280;7939;50.814;6.368;2023-05-09T09:24:21;99604.72;;;20.23;61.76
15678;BME280;7939;50.814;6.368;2023-05-09T09:26:49;99606.28;;;20.27;61.97
15678;BME280;7939;50.814;6.368;2023-05-09T09:29:17;99601.03;;;20.29;62.06
15678;BME280;7939;50.814;6.368;2023-05-09T09:31:46;99593.03;;;20.33;61.92
15678;BME280;7939;50.814;6.368;2023-05-09T09:34:19;99592.91;;;20.36;61.60
15678;BME280;7939;50.814;6.368;2023-05-09T09:36:46;99590.09;;;20.41;61.38
15678;BME280;7939;50.814;6.368;2023-05-09T09:39:13;99590.78;;;20.46;61.57
15678;BME280;7939;50.814;6.368;2023-05-09T09:41:40;99588.00;;;20.51;61.29
15678;BME280;7939;50.814;6.368;2023-05-09T09:44:11;99587.00;;;20.53;61.09
15678;BME280;7939;50.814;6.368;2023-05-09T09:46:43;99579.03;;;20.58;60.97
15678;BME280;7939;50.814;6.368;2023-05-09T09:49:10;99584.91;;;20.61;61.13
15678;BME280;7939;50.814;6.368;2023-05-09T09:51:37;99584.06;;;20.61;61.23
15678;BME280;7939;50.814;6.368;2023-05-09T09:54:06;99583.19;;;20.62;60.63
15678;BME280;7939;50.814;6.368;2023-05-09T09:56:43;99579.44;;;20.67;61.00
15678;BME280;7939;50.814;6.368;2023-05-09T09:59:13;99573.31;;;20.89;58.74
15678;BME280;7939;50.814;6.368;2023-05-09T10:01:59;99571.34;;;21.13;58.52
15678;BME280;7939;50.814;6.368;2023-05-09T10:04:28;99574.06;;;21.28;57.57
15678;BME280;7939;50.814;6.368;2023-05-09T10:06:56;99563.50;;;21.50;58.10
15678;BME280;7939;50.814;6.368;2023-05-09T10:09:24;99558.09;;;21.72;57.93
15678;BME280;7939;50.814;6.368;2023-05-09T10:11:52;99562.53;;;21.88;57.55
15678;BME280;7939;50.814;6.368;2023-05-09T10:14:22;99555.72;;;22.02;57.86
15678;BME280;7939;50.814;6.368;2023-05-09T10:16:51;99552.44;;;22.16;57.48
15678;BME280;7939;50.814;6.368;2023-05-09T10:19:18;99557.84;;;22.29;57.21
15678;BME280;7939;50.814;6.368;2023-05-09T10:21:49;99543.50;;;22.38;57.29
15678;BME280;7939;50.814;6.368;2023-05-09T10:24:21;99545.47;;;22.50;57.73
15678;BME280;7939;50.814;6.368;2023-05-09T10:26:49;99542.31;;;22.60;57.18
15678;BME280;7939;50.814;6.368;2023-05-09T10:29:21;99541.00;;;22.69;57.10
15678;BME280;7939;50.814;6.368;2023-05-09T10:31:53;99542.34;;;22.76;57.01
15678;BME280;7939;50.814;6.368;2023-05-09T10:34:25;99535.03;;;22.83;56.73
15678;BME280;7939;50.814;6.368;2023-05-09T10:36:54;99519.16;;;22.87;56.79
15678;BME280;7939;50.814;6.368;2023-05-09T10:39:22;99526.56;;;22.95;56.41
15678;BME280;7939;50.814;6.368;2023-05-09T10:41:50;99520.44;;;22.96;56.22
15678;BME280;7939;50.814;6.368;2023-05-09T10:44:17;99525.31;;;23.02;56.49
15678;BME280;7939;50.814;6.368;2023-05-09T10:46:46;99518.13;;;23.06;56.15
15678;BME280;7939;50.814;6.368;2023-05-09T10:49:13;99516.22;;;23.09;55.85
15678;BME280;7939;50.814;6.368;2023-05-09T10:51:39;99516.81;;;23.14;56.05
15678;BME280;7939;50.814;6.368;2023-05-09T10:54:12;99507.13;;;23.17;55.77
15678;BME280;7939;50.814;6.368;2023-05-09T10:56:39;99501.81;;;23.18;56.03
15678;BME280;7939;50.814;6.368;2023-05-09T10:59:31;99502.50;;;23.22;55.90
15678;BME280;7939;50.814;6.368;2023-05-09T11:01:59;99507.47;;;23.26;55.84
15678;BME280;7939;50.814;6.368;2023-05-09T11:04:28;99495.06;;;23.30;55.92
15678;BME280;7939;50.814;6.368;2023-05-09T11:06:54;99489.84;;;23.30;55.84
15678;BME280;7939;50.814;6.368;2023-05-09T11:09:27;99489.84;;;23.30;55.62
15678;BME280;7939;50.814;6.368;2023-05-09T11:11:57;99482.13;;;23.28;55.44
15678;BME280;7939;50.814;6.368;2023-05-09T11:14:31;99480.25;;;23.30;54.97
15678;BME280;7939;50.814;6.368;2023-05-09T11:17:01;99474.22;;;23.30;54.86
15678;BME280;7939;50.814;6.368;2023-05-09T11:19:36;99464.47;;;23.33;55.20
15678;BME280;7939;50.814;6.368;2023-05-09T11:22:13;99475.63;;;23.35;55.21
15678;BME280;7939;50.814;6.368;2023-05-09T11:24:44;99455.50;;;23.37;55.53
15678;BME280;7939;50.814;6.368;2023-05-09T11:27:15;99469.38;;;23.38;55.40
15678;BME280;7939;50.814;6.368;2023-05-09T11:29:42;99453.75;;;23.38;55.12
15678;BME280;7939;50.814;6.368;2023-05-09T11:32:12;99457.22;;;23.38;55.11
15678;BME280;7939;50.814;6.368;2023-05-09T11:34:42;99457.03;;;23.41;54.98
15678;BME280;7939;50.814;6.368;2023-05-09T11:37:10;99449.09;;;23.43;55.29
15678;BME280;7939;50.814;6.368;2023-05-09T11:39:55;99437.00;;;23.42;54.52
15678;BME280;7939;50.814;6.368;2023-05-09T11:42:23;99436.00;;;23.45;55.09
15678;BME280;7939;50.814;6.368;2023-05-09T11:44:50;99446.44;;;23.45;54.82
15678;BME280;7939;50.814;6.368;2023-05-09T11:47:18;99436.00;;;23.45;54.47
15678;BME280;7939;50.814;6.368;2023-05-09T11:49:46;99435.91;;;23.46;54.75
15678;BME280;7939;50.814;6.368;2023-05-09T11:52:13;99431.41;;;23.48;54.90
15678;BME280;7939;50.814;6.368;2023-05-09T11:54:40;99426.41;;;23.45;55.00
15678;BME280;7939;50.814;6.368;2023-05-09T11:57:07;99430.59;;;23.48;54.46
15678;BME280;7939;50.814;6.368;2023-05-09T11:59:34;99424.53;;;23.47;54.69
15678;BME280;7939;50.814;6.368;2023-05-09T12:02:02;99420.34;;;23.45;54.79
15678;BME280;7939;50.814;6.368;2023-05-09T12:04:31;99412.69;;;23.41;53.98
15678;BME280;7939;50.814;6.368;2023-05-09T12:06:58;99405.69;;;23.42;54.75
15678;BME280;7939;50.814;6.368;2023-05-09T12:09:24;99408.41;;;23.40;54.45
15678;BME280;7939;50.814;6.368;2023-05-09T12:11:54;99406.78;;;23.38;54.34
15678;BME280;7939;50.814;6.368;2023-05-09T12:14:28;99404.03;;;23.41;54.84
15678;BME280;7939;50.814;6.368;2023-05-09T12:16:56;99393.75;;;23.38;54.08
15678;BME280;7939;50.814;6.368;2023-05-09T12:19:23;99402.44;;;23.38;54.45
15678;BME280;7939;50.814;6.368;2023-05-09T12:21:54;99398.22;;;23.36;54.10
15678;BME280;7939;50.814;6.368;2023-05-09T12:24:22;99406.78;;;23.38;54.09
15678;BME280;7939;50.814;6.368;2023-05-09T12:26:51;99398.22;;;23.36;54.25
15678;BME280;7939;50.814;6.368;2023-05-09T12:29:18;99401.03;;;23.33;54.13
15678;BME280;7939;50.814;6.368;2023-05-09T12:31:46;99397.59;;;23.32;54.20
15678;BME280;7939;50.814;6.368;2023-05-09T12:34:13;99389.09;;;23.29;54.18
15678;BME280;7939;50.814;6.368;2023-05-09T12:36:42;99394.97;;;23.32;54.43
15678;BME280;7939;50.814;6.368;2023-05-09T12:39:16;99392.63;;;23.28;54.04
15678;BME280;7939;50.814;6.368;2023-05-09T12:41:46;99385.44;;;23.17;54.62
15678;BME280;7939;50.814;6.368;2023-05-09T12:44:18;99392.03;;;23.08;56.29
15678;BME280;7939;50.814;6.368;2023-05-09T12:46:52;99391.00;;;23.11;56.46
15678;BME280;7939;50.814;6.368;2023-05-09T12:49:20;99388.97;;;23.16;56.47
15678;BME280;7939;50.814;6.368;2023-05-09T12:51:47;99388.88;;;23.18;56.79
15678;BME280;7939;50.814;6.368;2023-05-09T12:54:20;99393.25;;;23.17;56.50
15678;BME280;7939;50.814;6.368;2023-05-09T12:56:48;99394.34;;;23.13;57.04
15678;BME280;7939;50.814;6.368;2023-05-09T12:59:19;99394.53;;;23.10;57.67
15678;BME280;7939;50.814;6.368;2023-05-09T13:01:51;99394.44;;;23.11;57.52
15678;BME280;7939;50.814;6.368;2023-05-09T13:04:19;99397.25;;;23.08;57.66
15678;BME280;7939;50.814;6.368;2023-05-09T13:06:47;99392.03;;;23.08;57.84
15678;BME280;7939;50.814;6.368;2023-05-09T13:09:14;99391.94;;;23.10;58.04
15678;BME280;7939;50.814;6.368;2023-05-09T13:11:42;99392.78;;;23.10;57.83
15678;BME280;7939;50.814;6.368;2023-05-09T13:14:09;99384.38;;;23.05;58.14